sensor_id;sensor_type;location;lat;lon;timestamp;pressure;altitude;pressure_sealevel;temperature;humidity
15382;BME280;7789;51.364;12.358;2023-02-13T00:01:08;102533.66;;;9.68;100.00
15382;BME280;7789;51.364;12.358;2023-02-13T00:06:15;102526.88;;;9.64;100.00
15382;BME280;7789;51.364;12.358;2023-02-13T00:11:19;102524.38;;;9.61;100.00
15382;BME280;7789;51.364;12.358;2023-02-13T00:16:27;102521.84;;;9.59;100.00
15382;BME280;7789;51.364;12.358;2023-02-13T00:21:32;102524.50;;;9.58;100.00
15382;BME280;7789;51.364;12.358;2023-02-13T00:26:35;102521.13;;;9.56;100.00
15382;BME280;7789;51.364;12.358;2023-02-13T00:31:44;102509.84;;;9.55;100.00
15382;BME280;7789;51.364;12.358;2023-02-13T00:36:49;102513.41;;;9.53;100.00
15382;BME280;7789;51.364;12.358;2023-02-13T00:41:56;102514.47;;;9.49;100.00
15382;BME280;7789;51.364;12.358;2023-02-13T00:47:04;102517.00;;;9.50;100.00
15382;BME280;7789;51.364;12.358;2023-02-13T00:52:13;102509.25;;;9.49;100.00
15382;BME280;7789;51.364;12.358;2023-02-13T00:57:19;102513.63;;;9.48;100.00
15382;BME280;7789;51.364;12.358;2023-02-13T01:02:28;102515.44;;;9.46;100.00
15382;BME280;7789;51.364;12.358;2023-02-13T01:07:31;102505.09;;;9.45;100.00
15382;BME280;7789;51.364;12.358;2023-02-13T01:12:39;102511.19;;;9.44;100.00
15382;BME280;7789;51.364;12.358;2023-02-13T01:17:51;102519.03;;;9.44;100.00
15382;BME280;7789;51.364;12.358;2023-02-13T01:22:56;102527.78;;;9.43;100.00
15382;BME280;7789;51.364;12.358;2023-02-13T01:28:04;102520.03;;;9.41;100.00
15382;BME280;7789;51.364;12.358;2023-02-13T01:33:11;102514.84;;;9.40;100.00
15382;BME280;7789;51.364;12.358;2023-02-13T01:38:19;102517.47;;;9.40;100.00
15382;BME280;7789;51.364;12.358;2023-02-13T01:43:26;102516.69;;;9.38;100.00
15382;BME280;7789;51.364;12.358;2023-02-13T01:48:50;102502.00;;;9.35;100.00
15382;BME280;7789;51.364;12.358;2023-02-13T01:54:01;102502.91;;;9.34;100.00
15382;BME280;7789;51.364;12.358;2023-02-13T01:59:12;102504.69;;;9.34;100.00
15382;BME280;7789;51.364;12.358;2023-02-13T02:04:24;102498.75;;;9.30;100.00
15382;BME280;7789;51.364;12.358;2023-02-13T02:09:33;102502.25;;;9.29;100.00
15382;BME280;7789;51.364;12.358;2023-02-13T02:14:41;102494.53;;;9.28;100.00
15382;BME280;7789;51.364;12.358;2023-02-13T02:19:52;102489.22;;;9.29;100.00
15382;BME280;7789;51.364;12.358;2023-02-13T02:25:31;102491.00;;;9.29;100.00
15382;BME280;7789;51.364;12.358;2023-02-13T02:31:15;102481.53;;;9.26;100.00
15382;BME280;7789;51.364;12.358;2023-02-13T02:36:39;102480.00;;;9.21;100.00
15382;BME280;7789;51.364;12.358;2023-02-13T02:41:55;102473.06;;;9.21;100.00
15382;BME280;7789;51.364;12.358;2023-02-13T02:47:08;102479.22;;;9.19;100.00
15382;BME280;7789;51.364;12.358;2023-02-13T02:52:40;102481.91;;;9.17;100.00
15382;BME280;7789;51.364;12.358;2023-02-13T02:57:51;102485.56;;;9.13;100.00
15382;BME280;7789;51.364;12.358;2023-02-13T03:03:19;102491.69;;;9.13;100.00
15382;BME280;7789;51.364;12.358;2023-02-13T03:08:46;102494.38;;;9.11;100.00
15382;BME280;7789;51.364;12.358;2023-02-13T03:14:17;102488.47;;;9.06;100.00
15382;BME280;7789;51.364;12.358;2023-02-13T03:19:37;102502.31;;;9.08;100.00
15382;BME280;7789;51.364;12.358;2023-02-13T03:25:11;102493.78;;;9.05;100.00
15382;BME280;7789;51.364;12.358;2023-02-13T03:30:49;102494.69;;;9.04;100.00
15382;BME280;7789;51.364;12.358;2023-02-13T03:36:06;102492.09;;;9.04;100.00
15382;BME280;7789;51.364;12.358;2023-02-13T03:41:37;102493.06;;;9.01;100.00
15382;BME280;7789;51.364;12.358;2023-02-13T03:46:47;102498.41;;;8.98;100.00
15382;BME280;7789;51.364;12.358;2023-02-13T03:51:57;102506.34;;;8.95;100.00
15382;BME280;7789;51.364;12.358;2023-02-13T03:57:05;102507.06;;;8.99;100.00
15382;BME280;7789;51.364;12.358;2023-02-13T04:02:29;102510.88;;;8.90;100.00
15382;BME280;7789;51.364;12.358;2023-02-13T04:07:37;102514.28;;;8.92;100.00
15382;BME280;7789;51.364;12.358;2023-02-13T04:12:51;102506.44;;;8.92;100.00
15382;BME280;7789;51.364;12.358;2023-02-13T04:18:02;102502.22;;;8.90;100.00
15382;BME280;7789;51.364;12.358;2023-02-13T04:23:12;102502.94;;;8.93;100.00
15382;BME280;7789;51.364;12.358;2023-02-13T04:28:23;102506.34;;;8.95;100.00
15382;BME280;7789;51.364;12.358;2023-02-13T04:33:29;102503.84;;;8.92;100.00
15382;BME280;7789;51.364;12.358;2023-02-13T04:38:33;102506.53;;;8.91;100.00
15382;BME280;7789;51.364;12.358;2023-02-13T04:43:39;102506.59;;;8.89;100.00
15382;BME280;7789;51.364;12.358;2023-02-13T04:48:48;102518.84;;;8.87;100.00
15382;BME280;7789;51.364;12.358;2023-02-13T04:54:01;102504.09;;;8.86;100.00
15382;BME280;7789;51.364;12.358;2023-02-13T04:59:10;102507.75;;;8.82;100.00
15382;BME280;7789;51.364;12.358;2023-02-13T05:04:15;102506.06;;;8.81;100.00
15382;BME280;7789;51.364;12.358;2023-02-13T05:09:36;102508.84;;;8.77;100.00
15382;BME280;7789;51.364;12.358;2023-02-13T05:14:47;102504.50;;;8.77;100.00
15382;BME280;7789;51.364;12.358;2023-02-13T05:19:53;102500.09;;;8.78;100.00
15382;BME280;7789;51.364;12.358;2023-02-13T05:24:57;102517.41;;;8.80;100.00
15382;BME280;7789;51.364;12.358;2023-02-13T05:30:13;102508.66;;;8.81;100.00
15382;BME280;7789;51.364;12.358;2023-02-13T05:35:37;102505.19;;;8.81;100.00
15382;BME280;7789;51.364;12.358;2023-02-13T05:40:41;102491.31;;;8.80;100.00
15382;BME280;7789;51.364;12.358;2023-02-13T05:45:51;102497.38;;;8.81;100.00
15382;BME280;7789;51.364;12.358;2023-02-13T05:51:05;102494.06;;;8.77;100.00
15382;BME280;7789;51.364;12.358;2023-02-13T05:56:19;102504.53;;;8.76;100.00
15382;BME280;7789;51.364;12.358;2023-02-13T06:01:24;102503.81;;;8.72;100.00
15382;BME280;7789;51.364;12.358;2023-02-13T06:06:29;102506.50;;;8.71;100.00
15382;BME280;7789;51.364;12.358;2023-02-13T06:11:34;102501.59;;;8.63;100.00
15382;BME280;7789;51.364;12.358;2023-02-13T06:16:43;102493.75;;;8.63;100.00
15382;BME280;7789;51.364;12.358;2023-02-13T06:21:52;102496.41;;;8.62;100.00
15382;BME280;7789;51.364;12.358;2023-02-13T06:27:01;102505.88;;;8.64;100.00
15382;BME280;7789;51.364;12.358;2023-02-13T06:32:17;102497.38;;;8.59;100.00
15382;BME280;7789;51.364;12.358;2023-02-13T06:37:23;102502.59;;;8.59;100.00
15382;BME280;7789;51.364;12.358;2023-02-13T06:42:33;102503.31;;;8.63;100.00
15382;BME280;7789;51.364;12.358;2023-02-13T06:47:47;102509.41;;;8.63;100.00
15382;BME280;7789;51.364;12.358;2023-02-13T06:52:54;102505.94;;;8.63;100.00
15382;BME280;7789;51.364;12.358;2023-02-13T06:58:04;102512.00;;;8.63;100.00
15382;BME280;7789;51.364;12.358;2023-02-13T07:03:15;102516.13;;;8.69;100.00
15382;BME280;7789;51.364;12.358;2023-02-13T07:08:21;102526.44;;;8.72;100.00
15382;BME280;7789;51.364;12.358;2023-02-13T07:13:29;102529.66;;;8.78;100.00
15382;BME280;7789;51.364;12.358;2023-02-13T07:18:38;102524.34;;;8.80;100.00
15382;BME280;7789;51.364;12.358;2023-02-13T07:23:46;102529.44;;;8.83;100.00
15382;BME280;7789;51.364;12.358;2023-02-13T07:28:52;102539.78;;;8.86;100.00
15382;BME280;7789;51.364;12.358;2023-02-13T07:34:16;102538.66;;;8.91;100.00
15382;BME280;7789;51.364;12.358;2023-02-13T07:39:23;102538.47;;;8.96;100.00
15382;BME280;7789;51.364;12.358;2023-02-13T07:44:29;102543.44;;;9.02;100.00
15382;BME280;7789;51.364;12.358;2023-02-13T07:49:39;102551.09;;;9.06;100.00
15382;BME280;7789;51.364;12.358;2023-02-13T07:54:49;102546.66;;;9.08;100.00
15382;BME280;7789;51.364;12.358;2023-02-13T07:59:56;102552.34;;;9.17;100.00
15382;BME280;7789;51.364;12.358;2023-02-13T08:05:05;102546.16;;;9.20;100.00
15382;BME280;7789;51.364;12.358;2023-02-13T08:10:14;102558.28;;;9.21;100.00
15382;BME280;7789;51.364;12.358;2023-02-13T08:15:47;102564.16;;;9.26;100.00
15382;BME280;7789;51.364;12.358;2023-02-13T08:20:55;102564.84;;;9.31;100.00
15382;BME280;7789;51.364;12.358;2023-02-13T08:26:03;102558.59;;;9.35;100.00
15382;BME280;7789;51.364;12.358;2023-02-13T08:31:14;102555.06;;;9.36;100.00
15382;BME280;7789;51.364;12.358;2023-02-13T08:36:25;102559.19;;;9.41;100.00
15382;BME280;7789;51.364;12.358;2023-02-13T08:41:29;102553.69;;;9.47;100.00
15382;BME280;7789;51.364;12.358;2023-02-13T08:46:38;102559.78;;;9.48;100.00
15382;BME280;7789;51.364;12.358;2023-02-13T08:51:45;102559.63;;;9.51;100.00
15382;BME280;7789;51.364;12.358;2023-02-13T08:57:04;102561.28;;;9.53;100.00
15382;BME280;7789;51.364;12.358;2023-02-13T09:02:09;102562.75;;;9.59;100.00
15382;BME280;7789;51.364;12.358;2023-02-13T09:07:22;102561.66;;;9.64;100.00
15382;BME280;7789;51.364;12.358;2023-02-13T09:12:26;102570.66;;;9.57;100.00
15382;BME280;7789;51.364;12.358;2023-02-13T09:17:31;102573.59;;;9.50;100.00
15382;BME280;7789;51.364;12.358;2023-02-13T09:22:40;102578.97;;;9.47;100.00
15382;BME280;7789;51.364;12.358;2023-02-13T09:27:46;102579.59;;;9.52;100.00
15382;BME280;7789;51.364;12.358;2023-02-13T09:32:55;102574.13;;;9.58;100.00
15382;BME280;7789;51.364;12.358;2023-02-13T09:38:11;102573.00;;;9.63;100.00
15382;BME280;7789;51.364;12.358;2023-02-13T09:43:26;102579.59;;;9.72;100.00
15382;BME280;7789;51.364;12.358;2023-02-13T09:48:40;102581.88;;;9.79;100.00
15382;BME280;7789;51.364;12.358;2023-02-13T09:53:52;102579.28;;;9.79;100.00
15382;BME280;7789;51.364;12.358;2023-02-13T09:59:02;102581.84;;;9.81;100.00
15382;BME280;7789;51.364;12.358;2023-02-13T10:04:24;102581.06;;;9.79;100.00
15382;BME280;7789;51.364;12.358;2023-02-13T10:09:39;102587.91;;;9.81;100.00
15382;BME280;7789;51.364;12.358;2023-02-13T10:14:53;102584.22;;;9.85;100.00
15382;BME280;7789;51.364;12.358;2023-02-13T10:25:28;102567.44;;;9.91;100.00
15382;BME280;7789;51.364;12.358;2023-02-13T10:30:51;102568.13;;;9.96;100.00
15382;BME280;7789;51.364;12.358;2023-02-13T10:36:04;102570.72;;;9.96;100.00
15382;BME280;7789;51.364;12.358;2023-02-13T10:41:24;102571.19;;;10.05;100.00
15382;BME280;7789;51.364;12.358;2023-02-13T10:46:38;102556.00;;;10.13;100.00
15382;BME280;7789;51.364;12.358;2023-02-13T10:51:51;102544.16;;;10.25;100.00
15382;BME280;7789;51.364;12.358;2023-02-13T10:57:11;102542.88;;;10.33;100.00
15382;BME280;7789;51.364;12.358;2023-02-13T11:02:25;102538.94;;;10.43;100.00
15382;BME280;7789;51.364;12.358;2023-02-13T11:07:31;102528.94;;;10.51;100.00
15382;BME280;7789;51.364;12.358;2023-02-13T11:12:44;102530.75;;;10.51;100.00
15382;BME280;7789;51.364;12.358;2023-02-13T11:18:02;102520.28;;;10.51;99.75
15382;BME280;7789;51.364;12.358;2023-02-13T11:23:34;102527.19;;;10.52;98.78
15382;BME280;7789;51.364;12.358;2023-02-13T11:28:48;102524.38;;;10.56;98.09
15382;BME280;7789;51.364;12.358;2023-02-13T11:33:56;102513.16;;;10.71;96.84
15382;BME280;7789;51.364;12.358;2023-02-13T11:39:02;102521.03;;;10.88;97.19
15382;BME280;7789;51.364;12.358;2023-02-13T11:44:24;102526.38;;;10.87;95.43
15382;BME280;7789;51.364;12.358;2023-02-13T11:49:31;102519.44;;;10.86;95.79
15382;BME280;7789;51.364;12.358;2023-02-13T11:54:39;102515.03;;;10.86;94.65
15382;BME280;7789;51.364;12.358;2023-02-13T11:59:49;102514.75;;;10.92;94.67
15382;BME280;7789;51.364;12.358;2023-02-13T12:05:15;102516.34;;;10.95;94.42
15382;BME280;7789;51.364;12.358;2023-02-13T12:10:27;102523.06;;;11.00;94.36
15382;BME280;7789;51.364;12.358;2023-02-13T12:15:41;102517.94;;;10.99;94.94
15382;BME280;7789;51.364;12.358;2023-02-13T12:21:04;102514.00;;;10.90;92.88
15382;BME280;7789;51.364;12.358;2023-02-13T12:26:19;102504.41;;;10.89;94.01
15382;BME280;7789;51.364;12.358;2023-02-13T12:37:38;102495.19;;;10.82;92.84
15382;BME280;7789;51.364;12.358;2023-02-13T12:42:53;102490.94;;;10.80;94.08
15382;BME280;7789;51.364;12.358;2023-02-13T12:48:13;102483.34;;;10.92;92.39
15382;BME280;7789;51.364;12.358;2023-02-13T12:53:29;102480.44;;;10.98;93.95
15382;BME280;7789;51.364;12.358;2023-02-13T12:58:54;102472.63;;;10.97;92.64
15382;BME280;7789;51.364;12.358;2023-02-13T13:04:08;102468.44;;;10.94;92.39
15382;BME280;7789;51.364;12.358;2023-02-13T13:09:36;102471.03;;;10.94;92.08
15382;BME280;7789;51.364;12.358;2023-02-13T13:14:50;102471.19;;;10.91;93.35
15382;BME280;7789;51.364;12.358;2023-02-13T13:20:02;102463.47;;;10.88;92.63
15382;BME280;7789;51.364;12.358;2023-02-13T13:25:17;102462.34;;;10.94;92.33
15382;BME280;7789;51.364;12.358;2023-02-13T13:30:25;102459.25;;;10.86;92.37
15382;BME280;7789;51.364;12.358;2023-02-13T13:35:31;102466.34;;;10.84;92.38
15382;BME280;7789;51.364;12.358;2023-02-13T13:46:10;102457.09;;;10.77;92.24
15382;BME280;7789;51.364;12.358;2023-02-13T13:51:17;102459.69;;;10.77;92.97
15382;BME280;7789;51.364;12.358;2023-02-13T13:56:22;102457.56;;;10.85;92.33
15382;BME280;7789;51.364;12.358;2023-02-13T14:01:28;102455.63;;;10.88;93.16
15382;BME280;7789;51.364;12.358;2023-02-13T14:12:36;102453.88;;;10.89;92.14
15382;BME280;7789;51.364;12.358;2023-02-13T14:17:51;102448.84;;;10.84;92.30
15382;BME280;7789;51.364;12.358;2023-02-13T14:22:56;102451.94;;;10.75;93.60
15382;BME280;7789;51.364;12.358;2023-02-13T14:28:19;102461.69;;;10.72;93.08
15382;BME280;7789;51.364;12.358;2023-02-13T14:33:28;102459.41;;;10.66;93.63
15382;BME280;7789;51.364;12.358;2023-02-13T14:38:34;102462.50;;;10.55;93.33
15382;BME280;7789;51.364;12.358;2023-02-13T14:43:50;102454.66;;;10.55;93.43
15382;BME280;7789;51.364;12.358;2023-02-13T14:49:00;102452.13;;;10.54;93.53
15382;BME280;7789;51.364;12.358;2023-02-13T14:54:08;102460.03;;;10.52;93.30
15382;BME280;7789;51.364;12.358;2023-02-13T14:59:19;102451.56;;;10.47;94.58
15382;BME280;7789;51.364;12.358;2023-02-13T15:04:29;102442.09;;;10.45;93.77
15382;BME280;7789;51.364;12.358;2023-02-13T15:09:35;102432.09;;;10.36;94.94
15382;BME280;7789;51.364;12.358;2023-02-13T15:14:40;102432.00;;;10.37;95.21
15382;BME280;7789;51.364;12.358;2023-02-13T15:19:48;102422.72;;;10.32;94.00
15382;BME280;7789;51.364;12.358;2023-02-13T15:24:52;102423.34;;;10.18;94.41
15382;BME280;7789;51.364;12.358;2023-02-13T15:29:57;102419.13;;;10.16;95.51
15382;BME280;7789;51.364;12.358;2023-02-13T15:35:16;102414.91;;;10.13;95.33
15382;BME280;7789;51.364;12.358;2023-02-13T15:40:25;102407.25;;;10.09;94.86
15382;BME280;7789;51.364;12.358;2023-02-13T15:45:29;102400.63;;;10.02;95.24
15382;BME280;7789;51.364;12.358;2023-02-13T15:50:34;102411.09;;;10.02;95.21
15382;BME280;7789;51.364;12.358;2023-02-13T15:55:37;102406.81;;;9.99;95.90
15382;BME280;7789;51.364;12.358;2023-02-13T16:00:41;102393.06;;;9.96;96.62
15382;BME280;7789;51.364;12.358;2023-02-13T16:05:47;102394.19;;;9.90;95.81
15382;BME280;7789;51.364;12.358;2023-02-13T16:11:13;102392.00;;;9.81;96.17
15382;BME280;7789;51.364;12.358;2023-02-13T16:16:20;102394.91;;;9.75;97.32
15382;BME280;7789;51.364;12.358;2023-02-13T16:21:27;102396.16;;;9.67;97.53
15382;BME280;7789;51.364;12.358;2023-02-13T16:26:33;102401.38;;;9.67;97.89
15382;BME280;7789;51.364;12.358;2023-02-13T16:31:40;102398.78;;;9.67;97.97
15382;BME280;7789;51.364;12.358;2023-02-13T16:36:44;102399.91;;;9.61;97.52
15382;BME280;7789;51.364;12.358;2023-02-13T16:41:48;102411.13;;;9.63;98.66
15382;BME280;7789;51.364;12.358;2023-02-13T16:46:54;102405.19;;;9.60;98.76
15382;BME280;7789;51.364;12.358;2023-02-13T16:52:09;102405.53;;;9.52;98.52
15382;BME280;7789;51.364;12.358;2023-02-13T16:57:19;102410.88;;;9.49;99.60
15382;BME280;7789;51.364;12.358;2023-02-13T17:02:24;102419.78;;;9.45;99.19
15382;BME280;7789;51.364;12.358;2023-02-13T17:07:34;102421.59;;;9.43;98.91
15382;BME280;7789;51.364;12.358;2023-02-13T17:12:38;102425.34;;;9.38;99.31
15382;BME280;7789;51.364;12.358;2023-02-13T17:17:42;102417.78;;;9.32;99.73
15382;BME280;7789;51.364;12.358;2023-02-13T17:22:49;102425.66;;;9.30;99.94
15382;BME280;7789;51.364;12.358;2023-02-13T17:27:54;102430.75;;;9.33;100.00
15382;BME280;7789;51.364;12.358;2023-02-13T17:32:59;102428.28;;;9.30;100.00
15382;BME280;7789;51.364;12.358;2023-02-13T17:38:09;102424.84;;;9.30;100.00
15382;BME280;7789;51.364;12.358;2023-02-13T17:43:14;102422.22;;;9.30;100.00
15382;BME280;7789;51.364;12.358;2023-02-13T17:48:18;102415.31;;;9.29;100.00
15382;BME280;7789;51.364;12.358;2023-02-13T17:53:29;102405.97;;;9.23;100.00
15382;BME280;7789;51.364;12.358;2023-02-13T17:58:32;102413.09;;;9.20;100.00
15382;BME280;7789;51.364;12.358;2023-02-13T18:03:37;102414.97;;;9.16;100.00
15382;BME280;7789;51.364;12.358;2023-02-13T18:08:42;102408.97;;;9.14;100.00
15382;BME280;7789;51.364;12.358;2023-02-13T18:13:45;102417.84;;;9.11;100.00
15382;BME280;7789;51.364;12.358;2023-02-13T18:18:53;102413.59;;;9.08;100.00
15382;BME280;7789;51.364;12.358;2023-02-13T18:24:03;102416.16;;;9.10;100.00
15382;BME280;7789;51.364;12.358;2023-02-13T18:29:06;102422.34;;;9.07;100.00
15382;BME280;7789;51.364;12.358;2023-02-13T18:34:10;102412.97;;;9.03;100.00
15382;BME280;7789;51.364;12.358;2023-02-13T18:39:15;102404.50;;;8.98;100.00
15382;BME280;7789;51.364;12.358;2023-02-13T18:44:36;102408.56;;;8.84;100.00
15382;BME280;7789;51.364;12.358;2023-02-13T18:49:41;102397.19;;;8.66;100.00
15382;BME280;7789;51.364;12.358;2023-02-13T18:54:48;102404.09;;;8.46;100.00
15382;BME280;7789;51.364;12.358;2023-02-13T18:59:52;102401.50;;;8.24;100.00
15382;BME280;7789;51.364;12.358;2023-02-13T19:05:01;102400.28;;;8.11;100.00
15382;BME280;7789;51.364;12.358;2023-02-13T19:10:10;102412.19;;;7.95;100.00
15382;BME280;7789;51.364;12.358;2023-02-13T19:15:13;102413.69;;;7.79;100.00
15382;BME280;7789;51.364;12.358;2023-02-13T19:20:25;102414.19;;;7.66;100.00
15382;BME280;7789;51.364;12.358;2023-02-13T19:25:37;102406.88;;;7.52;100.00
15382;BME280;7789;51.364;12.358;2023-02-13T19:30:41;102407.34;;;7.40;100.00
15382;BME280;7789;51.364;12.358;2023-02-13T19:35:56;102406.78;;;7.31;100.00
15382;BME280;7789;51.364;12.358;2023-02-13T19:41:03;102413.28;;;7.20;100.00
15382;BME280;7789;51.364;12.358;2023-02-13T19:46:18;102411.97;;;7.08;100.00
15382;BME280;7789;51.364;12.358;2023-02-13T19:51:36;102401.06;;;6.97;100.00
15382;BME280;7789;51.364;12.358;2023-02-13T19:56:57;102410.13;;;6.87;100.00
15382;BME280;7789;51.364;12.358;2023-02-13T20:02:12;102397.38;;;6.80;100.00
15382;BME280;7789;51.364;12.358;2023-02-13T20:07:25;102395.94;;;6.71;100.00
15382;BME280;7789;51.364;12.358;2023-02-13T20:12:31;102394.50;;;6.63;100.00
15382;BME280;7789;51.364;12.358;2023-02-13T20:17:41;102401.63;;;6.56;100.00
15382;BME280;7789;51.364;12.358;2023-02-13T20:22:52;102393.25;;;6.48;100.00
15382;BME280;7789;51.364;12.358;2023-02-13T20:28:05;102390.00;;;6.42;100.00
15382;BME280;7789;51.364;12.358;2023-02-13T20:33:24;102405.81;;;6.34;100.00
15382;BME280;7789;51.364;12.358;2023-02-13T20:38:28;102408.69;;;6.25;100.00
15382;BME280;7789;51.364;12.358;2023-02-13T20:43:32;102398.56;;;6.18;100.00
15382;BME280;7789;51.364;12.358;2023-02-13T20:48:35;102396.19;;;6.10;100.00
15382;BME280;7789;51.364;12.358;2023-02-13T20:53:40;102409.38;;;6.04;100.00
15382;BME280;7789;51.364;12.358;2023-02-13T20:58:46;102401.53;;;6.06;100.00
15382;BME280;7789;51.364;12.358;2023-02-13T21:03:51;102408.44;;;6.07;100.00
15382;BME280;7789;51.364;12.358;2023-02-13T21:08:55;102409.28;;;6.07;100.00
15382;BME280;7789;51.364;12.358;2023-02-13T21:14:00;102403.03;;;6.13;100.00
15382;BME280;7789;51.364;12.358;2023-02-13T21:19:05;102405.50;;;6.17;100.00
15382;BME280;7789;51.364;12.358;2023-02-13T21:24:11;102409.56;;;6.26;100.00
15382;BME280;7789;51.364;12.358;2023-02-13T21:29:17;102408.59;;;6.28;100.00
15382;BME280;7789;51.364;12.358;2023-02-13T21:34:20;102414.56;;;6.32;100.00
15382;BME280;7789;51.364;12.358;2023-02-13T21:39:23;102411.75;;;6.38;100.00
15382;BME280;7789;51.364;12.358;2023-02-13T21:44:28;102419.25;;;6.47;100.00
15382;BME280;7789;51.364;12.358;2023-02-13T21:49:31;102423.47;;;6.51;100.00
15382;BME280;7789;51.364;12.358;2023-02-13T21:54:34;102424.97;;;6.58;100.00
15382;BME280;7789;51.364;12.358;2023-02-13T21:59:39;102418.69;;;6.63;100.00
15382;BME280;7789;51.364;12.358;2023-02-13T22:04:42;102420.25;;;6.69;100.00
15382;BME280;7789;51.364;12.358;2023-02-13T22:09:45;102426.97;;;6.76;100.00
15382;BME280;7789;51.364;12.358;2023-02-13T22:14:50;102418.13;;;6.81;100.00
15382;BME280;7789;51.364;12.358;2023-02-13T22:19:53;102421.53;;;6.83;100.00
15382;BME280;7789;51.364;12.358;2023-02-13T22:24:56;102426.50;;;6.89;100.00
15382;BME280;7789;51.364;12.358;2023-02-13T22:30:01;102435.09;;;6.91;100.00
15382;BME280;7789;51.364;12.358;2023-02-13T22:35:05;102439.28;;;6.95;100.00
15382;BME280;7789;51.364;12.358;2023-02-13T22:40:10;102444.22;;;7.03;100.00
15382;BME280;7789;51.364;12.358;2023-02-13T22:45:15;102441.44;;;7.09;100.00
15382;BME280;7789;51.364;12.358;2023-02-13T22:50:19;102444.72;;;7.14;100.00
15382;BME280;7789;51.364;12.358;2023-02-13T22:55:22;102451.56;;;7.16;100.00
15382;BME280;7789;51.364;12.358;2023-02-13T23:00:27;102455.22;;;7.11;100.00
15382;BME280;7789;51.364;12.358;2023-02-13T23:05:30;102448.00;;;7.19;100.00
15382;BME280;7789;51.364;12.358;2023-02-13T23:10:33;102454.00;;;7.21;100.00
15382;BME280;7789;51.364;12.358;2023-02-13T23:15:42;102453.09;;;7.22;100.00
15382;BME280;7789;51.364;12.358;2023-02-13T23:20:48;102450.44;;;7.23;100.00
15382;BME280;7789;51.364;12.358;2023-02-13T23:25:51;102442.59;;;7.25;100.00
15382;BME280;7789;51.364;12.358;2023-02-13T23:30:55;102442.78;;;7.19;100.00
15382;BME280;7789;51.364;12.358;2023-02-13T23:35:59;102441.44;;;7.09;100.00
15382;BME280;7789;51.364;12.358;2023-02-13T23:41:06;102439.03;;;7.03;100.00
15382;BME280;7789;51.364;12.358;2023-02-13T23:46:11;102438.91;;;7.06;100.00
15382;BME280;7789;51.364;12.358;2023-02-13T23:51:15;102445.88;;;7.05;100.00
15382;BME280;7789;51.364;12.358;2023-02-13T23:56:19;102444.94;;;7.08;100.00
